sensor_id;sensor_type;location;lat;lon;timestamp;P1;durP1;ratioP1;P2;durP2;ratioP2
16346;SDS011;8283;48.504;13.734;2023-06-22T00:01:10;2.72;;;1.70;;
16346;SDS011;8283;48.504;13.734;2023-06-22T00:03:55;5.05;;;2.33;;
16346;SDS011;8283;48.504;13.734;2023-06-22T00:06:39;4.10;;;1.88;;
16346;SDS011;8283;48.504;13.734;2023-06-22T00:09:23;3.47;;;1.92;;
16346;SDS011;8283;48.504;13.734;2023-06-22T00:12:08;2.08;;;1.48;;
16346;SDS011;8283;48.504;13.734;2023-06-22T00:14:52;2.50;;;1.67;;
16346;SDS011;8283;48.504;13.734;2023-06-22T00:17:37;3.80;;;1.90;;
16346;SDS011;8283;48.504;13.734;2023-06-22T00:20:21;2.00;;;1.42;;
16346;SDS011;8283;48.504;13.734;2023-06-22T00:23:06;4.40;;;1.75;;
16346;SDS011;8283;48.504;13.734;2023-06-22T00:25:52;2.53;;;1.60;;
16346;SDS011;8283;48.504;13.734;2023-06-22T00:28:37;4.43;;;1.88;;
16346;SDS011;8283;48.504;13.734;2023-06-22T00:31:21;3.53;;;1.88;;
16346;SDS011;8283;48.504;13.734;2023-06-22T00:34:05;2.03;;;1.63;;
16346;SDS011;8283;48.504;13.734;2023-06-22T00:36:52;2.90;;;1.80;;
16346;SDS011;8283;48.504;13.734;2023-06-22T00:39:37;3.28;;;1.90;;
16346;SDS011;8283;48.504;13.734;2023-06-22T00:42:21;3.40;;;1.92;;
16346;SDS011;8283;48.504;13.734;2023-06-22T00:45:06;2.53;;;1.70;;
16346;SDS011;8283;48.504;13.734;2023-06-22T00:47:52;2.05;;;1.67;;
16346;SDS011;8283;48.504;13.734;2023-06-22T00:50:37;3.08;;;1.90;;
16346;SDS011;8283;48.504;13.734;2023-06-22T00:53:22;5.35;;;1.92;;
16346;SDS011;8283;48.504;13.734;2023-06-22T00:56:07;4.72;;;1.50;;
16346;SDS011;8283;48.504;13.734;2023-06-22T00:58:54;3.45;;;1.70;;
16346;SDS011;8283;48.504;13.734;2023-06-22T01:01:38;4.20;;;1.90;;
16346;SDS011;8283;48.504;13.734;2023-06-22T01:04:33;4.10;;;1.65;;
16346;SDS011;8283;48.504;13.734;2023-06-22T01:10:12;5.65;;;1.92;;
16346;SDS011;8283;48.504;13.734;2023-06-22T01:19:15;3.63;;;1.85;;
16346;SDS011;8283;48.504;13.734;2023-06-22T01:22:16;3.42;;;2.00;;
16346;SDS011;8283;48.504;13.734;2023-06-22T01:25:08;11.80;;;6.97;;
16346;SDS011;8283;48.504;13.734;2023-06-22T01:30:45;6.20;;;2.90;;
16346;SDS011;8283;48.504;13.734;2023-06-22T01:33:33;3.40;;;2.30;;
16346;SDS011;8283;48.504;13.734;2023-06-22T01:36:23;4.30;;;2.00;;
16346;SDS011;8283;48.504;13.734;2023-06-22T01:39:09;5.15;;;2.17;;
16346;SDS011;8283;48.504;13.734;2023-06-22T01:41:55;4.95;;;1.92;;
16346;SDS011;8283;48.504;13.734;2023-06-22T01:44:40;2.67;;;1.52;;
16346;SDS011;8283;48.504;13.734;2023-06-22T01:47:26;2.40;;;1.60;;
16346;SDS011;8283;48.504;13.734;2023-06-22T01:50:11;3.45;;;1.90;;
16346;SDS011;8283;48.504;13.734;2023-06-22T01:52:56;2.97;;;1.63;;
16346;SDS011;8283;48.504;13.734;2023-06-22T01:55:40;5.97;;;1.70;;
16346;SDS011;8283;48.504;13.734;2023-06-22T01:58:25;3.95;;;2.20;;
16346;SDS011;8283;48.504;13.734;2023-06-22T02:01:12;4.10;;;1.65;;
16346;SDS011;8283;48.504;13.734;2023-06-22T02:04:04;5.82;;;1.70;;
16346;SDS011;8283;48.504;13.734;2023-06-22T02:06:54;3.03;;;1.85;;
16346;SDS011;8283;48.504;13.734;2023-06-22T02:09:41;3.53;;;1.55;;
16346;SDS011;8283;48.504;13.734;2023-06-22T02:12:28;2.80;;;1.65;;
16346;SDS011;8283;48.504;13.734;2023-06-22T02:15:14;3.80;;;1.90;;
16346;SDS011;8283;48.504;13.734;2023-06-22T02:17:59;2.83;;;1.90;;
16346;SDS011;8283;48.504;13.734;2023-06-22T02:20:44;5.95;;;1.85;;
16346;SDS011;8283;48.504;13.734;2023-06-22T02:23:29;2.80;;;1.52;;
16346;SDS011;8283;48.504;13.734;2023-06-22T02:26:13;4.90;;;1.85;;
16346;SDS011;8283;48.504;13.734;2023-06-22T02:29:00;3.75;;;1.40;;
16346;SDS011;8283;48.504;13.734;2023-06-22T02:31:44;3.88;;;1.80;;
16346;SDS011;8283;48.504;13.734;2023-06-22T02:34:29;3.70;;;1.70;;
16346;SDS011;8283;48.504;13.734;2023-06-22T02:37:14;3.65;;;2.03;;
16346;SDS011;8283;48.504;13.734;2023-06-22T02:39:58;2.42;;;1.70;;
16346;SDS011;8283;48.504;13.734;2023-06-22T02:42:42;3.75;;;2.03;;
16346;SDS011;8283;48.504;13.734;2023-06-22T02:45:26;3.83;;;1.98;;
16346;SDS011;8283;48.504;13.734;2023-06-22T02:48:11;4.38;;;1.55;;
16346;SDS011;8283;48.504;13.734;2023-06-22T02:50:55;2.80;;;1.90;;
16346;SDS011;8283;48.504;13.734;2023-06-22T02:53:40;2.60;;;2.40;;
16346;SDS011;8283;48.504;13.734;2023-06-22T02:56:29;4.25;;;1.60;;
16346;SDS011;8283;48.504;13.734;2023-06-22T02:59:16;4.15;;;1.77;;
16346;SDS011;8283;48.504;13.734;2023-06-22T03:02:03;3.92;;;1.77;;
16346;SDS011;8283;48.504;13.734;2023-06-22T03:04:50;2.30;;;1.67;;
16346;SDS011;8283;48.504;13.734;2023-06-22T03:07:37;3.38;;;2.30;;
16346;SDS011;8283;48.504;13.734;2023-06-22T03:10:22;4.22;;;2.00;;
16346;SDS011;8283;48.504;13.734;2023-06-22T03:13:06;2.60;;;1.88;;
16346;SDS011;8283;48.504;13.734;2023-06-22T03:15:50;2.08;;;1.80;;
16346;SDS011;8283;48.504;13.734;2023-06-22T03:18:34;3.78;;;1.52;;
16346;SDS011;8283;48.504;13.734;2023-06-22T03:21:21;4.22;;;1.85;;
16346;SDS011;8283;48.504;13.734;2023-06-22T03:24:06;2.45;;;1.73;;
16346;SDS011;8283;48.504;13.734;2023-06-22T03:26:51;3.92;;;1.77;;
16346;SDS011;8283;48.504;13.734;2023-06-22T03:29:35;4.22;;;1.80;;
16346;SDS011;8283;48.504;13.734;2023-06-22T03:32:19;2.83;;;1.83;;
16346;SDS011;8283;48.504;13.734;2023-06-22T03:35:04;2.50;;;1.60;;
16346;SDS011;8283;48.504;13.734;2023-06-22T03:37:52;4.40;;;1.65;;
16346;SDS011;8283;48.504;13.734;2023-06-22T03:40:36;2.85;;;1.73;;
16346;SDS011;8283;48.504;13.734;2023-06-22T03:43:20;3.97;;;2.47;;
16346;SDS011;8283;48.504;13.734;2023-06-22T03:46:04;2.95;;;1.73;;
16346;SDS011;8283;48.504;13.734;2023-06-22T03:48:49;3.47;;;1.92;;
16346;SDS011;8283;48.504;13.734;2023-06-22T03:51:33;2.90;;;2.00;;
16346;SDS011;8283;48.504;13.734;2023-06-22T03:54:18;2.67;;;1.42;;
16346;SDS011;8283;48.504;13.734;2023-06-22T03:57:02;4.28;;;2.03;;
16346;SDS011;8283;48.504;13.734;2023-06-22T03:59:48;2.80;;;1.90;;
16346;SDS011;8283;48.504;13.734;2023-06-22T04:02:32;3.67;;;2.17;;
16346;SDS011;8283;48.504;13.734;2023-06-22T04:05:16;6.25;;;2.08;;
16346;SDS011;8283;48.504;13.734;2023-06-22T04:08:03;3.83;;;1.90;;
16346;SDS011;8283;48.504;13.734;2023-06-22T04:10:47;2.47;;;1.50;;
16346;SDS011;8283;48.504;13.734;2023-06-22T04:13:31;3.33;;;1.77;;
16346;SDS011;8283;48.504;13.734;2023-06-22T04:16:16;3.05;;;1.80;;
16346;SDS011;8283;48.504;13.734;2023-06-22T04:19:00;3.42;;;1.77;;
16346;SDS011;8283;48.504;13.734;2023-06-22T04:21:45;2.20;;;1.67;;
16346;SDS011;8283;48.504;13.734;2023-06-22T04:24:31;4.20;;;2.45;;
16346;SDS011;8283;48.504;13.734;2023-06-22T04:27:15;4.97;;;1.98;;
16346;SDS011;8283;48.504;13.734;2023-06-22T04:30:00;3.63;;;1.95;;
16346;SDS011;8283;48.504;13.734;2023-06-22T04:32:44;6.00;;;2.33;;
16346;SDS011;8283;48.504;13.734;2023-06-22T04:35:29;3.28;;;2.13;;
16346;SDS011;8283;48.504;13.734;2023-06-22T04:38:13;3.40;;;1.83;;
16346;SDS011;8283;48.504;13.734;2023-06-22T04:40:58;4.22;;;1.83;;
16346;SDS011;8283;48.504;13.734;2023-06-22T04:43:42;5.28;;;2.40;;
16346;SDS011;8283;48.504;13.734;2023-06-22T04:46:27;5.97;;;2.15;;
16346;SDS011;8283;48.504;13.734;2023-06-22T04:49:11;4.18;;;2.67;;
16346;SDS011;8283;48.504;13.734;2023-06-22T04:51:55;2.58;;;2.33;;
16346;SDS011;8283;48.504;13.734;2023-06-22T04:54:40;4.63;;;2.60;;
16346;SDS011;8283;48.504;13.734;2023-06-22T04:57:31;3.88;;;2.85;;
16346;SDS011;8283;48.504;13.734;2023-06-22T05:00:16;4.63;;;2.85;;
16346;SDS011;8283;48.504;13.734;2023-06-22T05:03:06;5.57;;;2.35;;
16346;SDS011;8283;48.504;13.734;2023-06-22T05:05:55;3.45;;;2.53;;
16346;SDS011;8283;48.504;13.734;2023-06-22T05:08:39;2.88;;;2.17;;
16346;SDS011;8283;48.504;13.734;2023-06-22T05:11:25;3.75;;;2.63;;
16346;SDS011;8283;48.504;13.734;2023-06-22T05:14:10;4.65;;;2.15;;
16346;SDS011;8283;48.504;13.734;2023-06-22T05:16:54;5.90;;;2.40;;
16346;SDS011;8283;48.504;13.734;2023-06-22T05:19:42;3.22;;;1.95;;
16346;SDS011;8283;48.504;13.734;2023-06-22T05:22:32;3.83;;;2.55;;
16346;SDS011;8283;48.504;13.734;2023-06-22T05:25:16;6.30;;;2.88;;
16346;SDS011;8283;48.504;13.734;2023-06-22T05:28:01;3.03;;;2.08;;
16346;SDS011;8283;48.504;13.734;2023-06-22T05:30:55;3.40;;;2.20;;
16346;SDS011;8283;48.504;13.734;2023-06-22T05:33:40;4.22;;;2.47;;
16346;SDS011;8283;48.504;13.734;2023-06-22T05:36:27;4.05;;;2.47;;
16346;SDS011;8283;48.504;13.734;2023-06-22T05:39:12;3.92;;;2.17;;
16346;SDS011;8283;48.504;13.734;2023-06-22T05:41:58;3.30;;;2.20;;
16346;SDS011;8283;48.504;13.734;2023-06-22T05:44:42;5.53;;;2.17;;
16346;SDS011;8283;48.504;13.734;2023-06-22T05:47:26;5.05;;;2.15;;
16346;SDS011;8283;48.504;13.734;2023-06-22T05:50:10;2.75;;;1.80;;
16346;SDS011;8283;48.504;13.734;2023-06-22T05:52:54;5.13;;;2.13;;
16346;SDS011;8283;48.504;13.734;2023-06-22T05:55:39;3.05;;;2.05;;
16346;SDS011;8283;48.504;13.734;2023-06-22T05:58:23;3.75;;;2.15;;
16346;SDS011;8283;48.504;13.734;2023-06-22T06:01:08;5.57;;;2.10;;
16346;SDS011;8283;48.504;13.734;2023-06-22T06:03:52;4.43;;;2.10;;
16346;SDS011;8283;48.504;13.734;2023-06-22T06:06:37;2.53;;;2.00;;
16346;SDS011;8283;48.504;13.734;2023-06-22T06:09:22;2.72;;;1.92;;
16346;SDS011;8283;48.504;13.734;2023-06-22T06:12:06;3.85;;;2.20;;
16346;SDS011;8283;48.504;13.734;2023-06-22T06:14:50;3.15;;;2.25;;
16346;SDS011;8283;48.504;13.734;2023-06-22T06:17:44;3.38;;;2.03;;
16346;SDS011;8283;48.504;13.734;2023-06-22T06:20:30;3.17;;;2.30;;
16346;SDS011;8283;48.504;13.734;2023-06-22T06:23:16;6.53;;;2.20;;
16346;SDS011;8283;48.504;13.734;2023-06-22T06:26:00;4.60;;;2.33;;
16346;SDS011;8283;48.504;13.734;2023-06-22T06:28:45;4.00;;;2.28;;
16346;SDS011;8283;48.504;13.734;2023-06-22T06:31:29;4.10;;;2.10;;
16346;SDS011;8283;48.504;13.734;2023-06-22T06:34:14;4.35;;;2.03;;
16346;SDS011;8283;48.504;13.734;2023-06-22T06:36:58;5.38;;;2.50;;
16346;SDS011;8283;48.504;13.734;2023-06-22T06:39:42;4.13;;;2.28;;
16346;SDS011;8283;48.504;13.734;2023-06-22T06:42:26;2.90;;;2.55;;
16346;SDS011;8283;48.504;13.734;2023-06-22T06:45:18;5.43;;;3.00;;
16346;SDS011;8283;48.504;13.734;2023-06-22T06:48:07;3.63;;;2.25;;
16346;SDS011;8283;48.504;13.734;2023-06-22T06:50:51;6.28;;;2.15;;
16346;SDS011;8283;48.504;13.734;2023-06-22T06:53:37;3.08;;;2.28;;
16346;SDS011;8283;48.504;13.734;2023-06-22T06:56:21;4.32;;;2.42;;
16346;SDS011;8283;48.504;13.734;2023-06-22T06:59:06;5.15;;;2.38;;
16346;SDS011;8283;48.504;13.734;2023-06-22T07:01:50;7.80;;;2.63;;
16346;SDS011;8283;48.504;13.734;2023-06-22T07:04:34;3.25;;;2.25;;
16346;SDS011;8283;48.504;13.734;2023-06-22T07:07:19;3.20;;;2.28;;
16346;SDS011;8283;48.504;13.734;2023-06-22T07:10:04;2.85;;;2.35;;
16346;SDS011;8283;48.504;13.734;2023-06-22T07:12:49;4.18;;;3.05;;
16346;SDS011;8283;48.504;13.734;2023-06-22T07:15:34;4.18;;;2.47;;
16346;SDS011;8283;48.504;13.734;2023-06-22T07:18:18;4.45;;;2.40;;
16346;SDS011;8283;48.504;13.734;2023-06-22T07:21:02;3.60;;;2.60;;
16346;SDS011;8283;48.504;13.734;2023-06-22T07:23:49;2.97;;;2.20;;
16346;SDS011;8283;48.504;13.734;2023-06-22T07:26:34;2.95;;;2.30;;
16346;SDS011;8283;48.504;13.734;2023-06-22T07:29:18;3.88;;;2.22;;
16346;SDS011;8283;48.504;13.734;2023-06-22T07:32:07;2.95;;;2.30;;
16346;SDS011;8283;48.504;13.734;2023-06-22T07:34:51;3.42;;;2.20;;
16346;SDS011;8283;48.504;13.734;2023-06-22T07:37:36;2.83;;;2.45;;
16346;SDS011;8283;48.504;13.734;2023-06-22T07:40:20;2.70;;;2.40;;
16346;SDS011;8283;48.504;13.734;2023-06-22T07:43:05;4.53;;;2.28;;
16346;SDS011;8283;48.504;13.734;2023-06-22T07:45:50;4.10;;;2.30;;
16346;SDS011;8283;48.504;13.734;2023-06-22T07:48:36;2.63;;;2.28;;
16346;SDS011;8283;48.504;13.734;2023-06-22T07:51:22;3.65;;;2.50;;
16346;SDS011;8283;48.504;13.734;2023-06-22T07:54:06;2.45;;;2.20;;
16346;SDS011;8283;48.504;13.734;2023-06-22T07:56:51;5.30;;;2.47;;
16346;SDS011;8283;48.504;13.734;2023-06-22T07:59:36;4.97;;;2.58;;
16346;SDS011;8283;48.504;13.734;2023-06-22T08:02:22;3.85;;;2.50;;
16346;SDS011;8283;48.504;13.734;2023-06-22T08:05:06;3.58;;;2.38;;
16346;SDS011;8283;48.504;13.734;2023-06-22T08:07:52;2.38;;;2.17;;
16346;SDS011;8283;48.504;13.734;2023-06-22T08:10:37;4.75;;;2.45;;
16346;SDS011;8283;48.504;13.734;2023-06-22T08:13:21;4.00;;;2.60;;
16346;SDS011;8283;48.504;13.734;2023-06-22T08:16:05;2.45;;;2.25;;
16346;SDS011;8283;48.504;13.734;2023-06-22T08:18:51;3.85;;;2.80;;
16346;SDS011;8283;48.504;13.734;2023-06-22T08:21:36;2.53;;;2.15;;
16346;SDS011;8283;48.504;13.734;2023-06-22T08:24:21;3.28;;;2.20;;
16346;SDS011;8283;48.504;13.734;2023-06-22T08:27:06;4.07;;;2.47;;
16346;SDS011;8283;48.504;13.734;2023-06-22T08:29:53;6.57;;;2.40;;
16346;SDS011;8283;48.504;13.734;2023-06-22T08:32:42;3.35;;;2.10;;
16346;SDS011;8283;48.504;13.734;2023-06-22T08:35:26;2.80;;;2.35;;
16346;SDS011;8283;48.504;13.734;2023-06-22T08:38:10;4.60;;;2.45;;
16346;SDS011;8283;48.504;13.734;2023-06-22T08:40:57;3.78;;;2.45;;
16346;SDS011;8283;48.504;13.734;2023-06-22T08:43:42;6.22;;;2.80;;
16346;SDS011;8283;48.504;13.734;2023-06-22T08:46:28;4.18;;;2.42;;
16346;SDS011;8283;48.504;13.734;2023-06-22T08:49:17;3.15;;;2.35;;
16346;SDS011;8283;48.504;13.734;2023-06-22T08:52:01;5.00;;;2.30;;
16346;SDS011;8283;48.504;13.734;2023-06-22T08:54:46;4.15;;;2.47;;
16346;SDS011;8283;48.504;13.734;2023-06-22T08:57:31;5.55;;;2.10;;
16346;SDS011;8283;48.504;13.734;2023-06-22T09:00:16;3.15;;;2.15;;
16346;SDS011;8283;48.504;13.734;2023-06-22T09:03:03;2.65;;;2.33;;
16346;SDS011;8283;48.504;13.734;2023-06-22T09:05:48;4.85;;;2.70;;
16346;SDS011;8283;48.504;13.734;2023-06-22T09:08:33;5.53;;;2.40;;
16346;SDS011;8283;48.504;13.734;2023-06-22T09:11:17;3.10;;;1.98;;
16346;SDS011;8283;48.504;13.734;2023-06-22T09:14:02;3.83;;;2.28;;
16346;SDS011;8283;48.504;13.734;2023-06-22T09:16:47;4.43;;;2.45;;
16346;SDS011;8283;48.504;13.734;2023-06-22T09:19:32;3.25;;;2.17;;
16346;SDS011;8283;48.504;13.734;2023-06-22T09:22:16;2.50;;;2.00;;
16346;SDS011;8283;48.504;13.734;2023-06-22T09:25:01;3.88;;;2.25;;
16346;SDS011;8283;48.504;13.734;2023-06-22T09:27:47;2.80;;;2.25;;
16346;SDS011;8283;48.504;13.734;2023-06-22T09:30:31;2.45;;;2.03;;
16346;SDS011;8283;48.504;13.734;2023-06-22T09:33:16;4.18;;;1.98;;
16346;SDS011;8283;48.504;13.734;2023-06-22T09:36:00;4.40;;;2.40;;
16346;SDS011;8283;48.504;13.734;2023-06-22T09:38:44;3.17;;;2.17;;
16346;SDS011;8283;48.504;13.734;2023-06-22T09:41:28;5.18;;;2.38;;
16346;SDS011;8283;48.504;13.734;2023-06-22T09:44:12;4.05;;;2.22;;
16346;SDS011;8283;48.504;13.734;2023-06-22T09:46:57;4.57;;;2.20;;
16346;SDS011;8283;48.504;13.734;2023-06-22T09:49:41;6.65;;;2.70;;
16346;SDS011;8283;48.504;13.734;2023-06-22T09:52:25;5.63;;;2.55;;
16346;SDS011;8283;48.504;13.734;2023-06-22T09:55:10;5.30;;;2.30;;
16346;SDS011;8283;48.504;13.734;2023-06-22T09:57:54;3.90;;;2.17;;
16346;SDS011;8283;48.504;13.734;2023-06-22T10:00:39;4.28;;;2.45;;
16346;SDS011;8283;48.504;13.734;2023-06-22T10:03:25;3.17;;;2.50;;
16346;SDS011;8283;48.504;13.734;2023-06-22T10:06:09;4.15;;;2.17;;
16346;SDS011;8283;48.504;13.734;2023-06-22T10:08:54;4.68;;;2.60;;
16346;SDS011;8283;48.504;13.734;2023-06-22T10:11:38;7.07;;;2.80;;
16346;SDS011;8283;48.504;13.734;2023-06-22T10:14:22;4.43;;;2.22;;
16346;SDS011;8283;48.504;13.734;2023-06-22T10:17:08;5.43;;;2.20;;
16346;SDS011;8283;48.504;13.734;2023-06-22T10:19:53;3.35;;;2.63;;
16346;SDS011;8283;48.504;13.734;2023-06-22T10:22:38;5.43;;;2.50;;
16346;SDS011;8283;48.504;13.734;2023-06-22T10:25:23;6.10;;;2.80;;
16346;SDS011;8283;48.504;13.734;2023-06-22T10:28:08;4.28;;;2.30;;
16346;SDS011;8283;48.504;13.734;2023-06-22T10:30:52;3.53;;;2.63;;
16346;SDS011;8283;48.504;13.734;2023-06-22T10:33:37;5.00;;;2.60;;
16346;SDS011;8283;48.504;13.734;2023-06-22T10:36:21;5.22;;;2.30;;
16346;SDS011;8283;48.504;13.734;2023-06-22T10:39:06;5.90;;;2.75;;
16346;SDS011;8283;48.504;13.734;2023-06-22T10:41:50;5.00;;;2.90;;
16346;SDS011;8283;48.504;13.734;2023-06-22T10:44:35;3.50;;;2.25;;
16346;SDS011;8283;48.504;13.734;2023-06-22T10:47:19;4.90;;;2.45;;
16346;SDS011;8283;48.504;13.734;2023-06-22T10:50:03;4.88;;;2.70;;
16346;SDS011;8283;48.504;13.734;2023-06-22T10:52:48;6.50;;;2.60;;
16346;SDS011;8283;48.504;13.734;2023-06-22T10:55:32;5.22;;;2.50;;
16346;SDS011;8283;48.504;13.734;2023-06-22T10:58:18;3.30;;;2.60;;
16346;SDS011;8283;48.504;13.734;2023-06-22T11:01:03;3.92;;;2.10;;
16346;SDS011;8283;48.504;13.734;2023-06-22T11:03:47;4.75;;;2.67;;
16346;SDS011;8283;48.504;13.734;2023-06-22T11:06:31;4.75;;;2.42;;
16346;SDS011;8283;48.504;13.734;2023-06-22T11:09:16;5.18;;;2.47;;
16346;SDS011;8283;48.504;13.734;2023-06-22T11:12:04;4.75;;;2.70;;
16346;SDS011;8283;48.504;13.734;2023-06-22T11:14:49;5.80;;;2.90;;
16346;SDS011;8283;48.504;13.734;2023-06-22T11:17:36;5.63;;;2.47;;
16346;SDS011;8283;48.504;13.734;2023-06-22T11:20:20;4.65;;;2.55;;
16346;SDS011;8283;48.504;13.734;2023-06-22T11:23:05;5.07;;;2.78;;
16346;SDS011;8283;48.504;13.734;2023-06-22T11:25:52;6.60;;;2.40;;
16346;SDS011;8283;48.504;13.734;2023-06-22T11:28:38;5.13;;;2.50;;
16346;SDS011;8283;48.504;13.734;2023-06-22T11:31:22;5.50;;;3.33;;
16346;SDS011;8283;48.504;13.734;2023-06-22T11:34:07;9.07;;;3.22;;
16346;SDS011;8283;48.504;13.734;2023-06-22T11:36:51;3.50;;;2.40;;
16346;SDS011;8283;48.504;13.734;2023-06-22T11:39:36;4.95;;;3.10;;
16346;SDS011;8283;48.504;13.734;2023-06-22T11:42:20;5.38;;;3.03;;
16346;SDS011;8283;48.504;13.734;2023-06-22T11:45:07;6.70;;;3.00;;
16346;SDS011;8283;48.504;13.734;2023-06-22T11:47:52;3.55;;;2.85;;
16346;SDS011;8283;48.504;13.734;2023-06-22T11:50:36;4.30;;;2.58;;
16346;SDS011;8283;48.504;13.734;2023-06-22T11:53:21;6.07;;;2.72;;
16346;SDS011;8283;48.504;13.734;2023-06-22T11:56:06;3.58;;;2.55;;
16346;SDS011;8283;48.504;13.734;2023-06-22T11:58:50;5.10;;;2.90;;
16346;SDS011;8283;48.504;13.734;2023-06-22T12:01:35;5.28;;;3.15;;
16346;SDS011;8283;48.504;13.734;2023-06-22T12:04:19;3.75;;;2.72;;
16346;SDS011;8283;48.504;13.734;2023-06-22T12:07:04;4.95;;;2.95;;
16346;SDS011;8283;48.504;13.734;2023-06-22T12:09:49;5.15;;;2.63;;
16346;SDS011;8283;48.504;13.734;2023-06-22T12:12:33;4.55;;;2.63;;
16346;SDS011;8283;48.504;13.734;2023-06-22T12:15:17;8.98;;;2.90;;
16346;SDS011;8283;48.504;13.734;2023-06-22T12:18:01;4.97;;;2.47;;
16346;SDS011;8283;48.504;13.734;2023-06-22T12:20:46;4.95;;;2.50;;
16346;SDS011;8283;48.504;13.734;2023-06-22T12:23:31;5.00;;;3.08;;
16346;SDS011;8283;48.504;13.734;2023-06-22T12:26:15;5.70;;;2.90;;
16346;SDS011;8283;48.504;13.734;2023-06-22T12:29:00;5.82;;;2.55;;
16346;SDS011;8283;48.504;13.734;2023-06-22T12:31:44;6.88;;;2.90;;
16346;SDS011;8283;48.504;13.734;2023-06-22T12:34:28;3.85;;;2.50;;
16346;SDS011;8283;48.504;13.734;2023-06-22T12:37:13;4.65;;;2.55;;
16346;SDS011;8283;48.504;13.734;2023-06-22T12:39:57;6.55;;;2.58;;
16346;SDS011;8283;48.504;13.734;2023-06-22T12:42:44;3.20;;;2.50;;
16346;SDS011;8283;48.504;13.734;2023-06-22T12:45:29;3.45;;;2.55;;
16346;SDS011;8283;48.504;13.734;2023-06-22T12:48:16;4.30;;;2.67;;
16346;SDS011;8283;48.504;13.734;2023-06-22T12:51:01;6.47;;;2.85;;
16346;SDS011;8283;48.504;13.734;2023-06-22T12:53:46;6.25;;;2.72;;
16346;SDS011;8283;48.504;13.734;2023-06-22T12:56:30;5.65;;;2.70;;
16346;SDS011;8283;48.504;13.734;2023-06-22T12:59:14;4.43;;;3.00;;
16346;SDS011;8283;48.504;13.734;2023-06-22T13:01:58;4.13;;;2.38;;
16346;SDS011;8283;48.504;13.734;2023-06-22T13:04:42;6.10;;;3.10;;
16346;SDS011;8283;48.504;13.734;2023-06-22T13:07:27;5.13;;;2.50;;
16346;SDS011;8283;48.504;13.734;2023-06-22T13:10:11;6.13;;;2.63;;
16346;SDS011;8283;48.504;13.734;2023-06-22T13:12:55;4.90;;;2.75;;
16346;SDS011;8283;48.504;13.734;2023-06-22T13:15:44;5.10;;;2.45;;
16346;SDS011;8283;48.504;13.734;2023-06-22T13:18:28;2.85;;;2.17;;
16346;SDS011;8283;48.504;13.734;2023-06-22T13:21:13;4.72;;;2.95;;
16346;SDS011;8283;48.504;13.734;2023-06-22T13:23:58;6.47;;;2.42;;
16346;SDS011;8283;48.504;13.734;2023-06-22T13:26:43;4.55;;;2.50;;
16346;SDS011;8283;48.504;13.734;2023-06-22T13:29:27;3.83;;;2.30;;
16346;SDS011;8283;48.504;13.734;2023-06-22T13:32:11;6.25;;;2.50;;
16346;SDS011;8283;48.504;13.734;2023-06-22T13:34:55;4.93;;;2.47;;
16346;SDS011;8283;48.504;13.734;2023-06-22T13:37:40;3.40;;;2.47;;
16346;SDS011;8283;48.504;13.734;2023-06-22T13:40:24;6.45;;;3.25;;
16346;SDS011;8283;48.504;13.734;2023-06-22T13:43:08;5.57;;;3.42;;
16346;SDS011;8283;48.504;13.734;2023-06-22T13:45:52;4.45;;;2.67;;
16346;SDS011;8283;48.504;13.734;2023-06-22T13:48:37;11.00;;;2.90;;
16346;SDS011;8283;48.504;13.734;2023-06-22T13:51:22;7.70;;;2.92;;
16346;SDS011;8283;48.504;13.734;2023-06-22T13:54:06;7.95;;;3.30;;
16346;SDS011;8283;48.504;13.734;2023-06-22T13:56:51;7.47;;;3.00;;
16346;SDS011;8283;48.504;13.734;2023-06-22T13:59:35;6.03;;;3.22;;
16346;SDS011;8283;48.504;13.734;2023-06-22T14:02:19;4.65;;;2.70;;
16346;SDS011;8283;48.504;13.734;2023-06-22T14:05:03;6.85;;;3.45;;
16346;SDS011;8283;48.504;13.734;2023-06-22T14:07:48;10.10;;;2.92;;
16346;SDS011;8283;48.504;13.734;2023-06-22T14:10:33;5.20;;;2.95;;
16346;SDS011;8283;48.504;13.734;2023-06-22T14:13:17;6.15;;;3.03;;
16346;SDS011;8283;48.504;13.734;2023-06-22T14:16:01;7.68;;;3.33;;
16346;SDS011;8283;48.504;13.734;2023-06-22T14:18:46;7.32;;;2.95;;
16346;SDS011;8283;48.504;13.734;2023-06-22T14:21:31;7.47;;;3.25;;
16346;SDS011;8283;48.504;13.734;2023-06-22T14:24:15;4.93;;;2.97;;
16346;SDS011;8283;48.504;13.734;2023-06-22T14:26:59;7.10;;;3.00;;
16346;SDS011;8283;48.504;13.734;2023-06-22T14:29:46;4.60;;;2.75;;
16346;SDS011;8283;48.504;13.734;2023-06-22T14:32:31;7.55;;;3.05;;
16346;SDS011;8283;48.504;13.734;2023-06-22T14:35:15;5.93;;;2.83;;
16346;SDS011;8283;48.504;13.734;2023-06-22T14:37:59;5.95;;;2.90;;
16346;SDS011;8283;48.504;13.734;2023-06-22T14:40:44;5.75;;;3.05;;
16346;SDS011;8283;48.504;13.734;2023-06-22T14:43:28;6.35;;;3.20;;
16346;SDS011;8283;48.504;13.734;2023-06-22T14:46:14;8.18;;;3.22;;
16346;SDS011;8283;48.504;13.734;2023-06-22T14:48:59;7.82;;;3.40;;
16346;SDS011;8283;48.504;13.734;2023-06-22T14:51:52;4.82;;;2.95;;
16346;SDS011;8283;48.504;13.734;2023-06-22T14:54:37;7.70;;;3.17;;
16346;SDS011;8283;48.504;13.734;2023-06-22T14:57:21;6.13;;;3.00;;
16346;SDS011;8283;48.504;13.734;2023-06-22T15:00:07;6.32;;;3.33;;
16346;SDS011;8283;48.504;13.734;2023-06-22T15:02:51;5.78;;;3.35;;
16346;SDS011;8283;48.504;13.734;2023-06-22T15:05:36;4.15;;;2.88;;
16346;SDS011;8283;48.504;13.734;2023-06-22T15:08:20;6.45;;;3.30;;
16346;SDS011;8283;48.504;13.734;2023-06-22T15:11:05;5.38;;;3.60;;
16346;SDS011;8283;48.504;13.734;2023-06-22T15:13:50;4.43;;;3.10;;
16346;SDS011;8283;48.504;13.734;2023-06-22T15:16:34;5.35;;;3.10;;
16346;SDS011;8283;48.504;13.734;2023-06-22T15:19:18;5.90;;;2.92;;
16346;SDS011;8283;48.504;13.734;2023-06-22T15:22:03;8.20;;;2.95;;
16346;SDS011;8283;48.504;13.734;2023-06-22T15:24:51;6.35;;;3.38;;
16346;SDS011;8283;48.504;13.734;2023-06-22T15:27:37;8.00;;;3.55;;
16346;SDS011;8283;48.504;13.734;2023-06-22T15:30:22;3.88;;;3.00;;
16346;SDS011;8283;48.504;13.734;2023-06-22T15:33:06;7.75;;;3.00;;
16346;SDS011;8283;48.504;13.734;2023-06-22T15:35:51;8.98;;;3.13;;
16346;SDS011;8283;48.504;13.734;2023-06-22T15:38:36;7.22;;;3.13;;
16346;SDS011;8283;48.504;13.734;2023-06-22T15:41:21;7.93;;;3.92;;
16346;SDS011;8283;48.504;13.734;2023-06-22T15:44:06;8.38;;;3.55;;
16346;SDS011;8283;48.504;13.734;2023-06-22T15:46:51;6.55;;;4.28;;
16346;SDS011;8283;48.504;13.734;2023-06-22T15:49:35;4.97;;;3.22;;
16346;SDS011;8283;48.504;13.734;2023-06-22T15:52:19;8.63;;;3.42;;
16346;SDS011;8283;48.504;13.734;2023-06-22T15:55:04;6.40;;;3.28;;
16346;SDS011;8283;48.504;13.734;2023-06-22T15:57:48;13.63;;;3.53;;
16346;SDS011;8283;48.504;13.734;2023-06-22T16:00:33;8.00;;;3.70;;
16346;SDS011;8283;48.504;13.734;2023-06-22T16:03:17;5.53;;;2.80;;
16346;SDS011;8283;48.504;13.734;2023-06-22T16:06:02;7.15;;;3.35;;
16346;SDS011;8283;48.504;13.734;2023-06-22T16:08:46;7.20;;;3.40;;
16346;SDS011;8283;48.504;13.734;2023-06-22T16:11:31;7.82;;;3.70;;
16346;SDS011;8283;48.504;13.734;2023-06-22T16:14:15;8.43;;;3.20;;
16346;SDS011;8283;48.504;13.734;2023-06-22T16:16:59;6.88;;;3.70;;
16346;SDS011;8283;48.504;13.734;2023-06-22T16:19:43;7.25;;;3.33;;
16346;SDS011;8283;48.504;13.734;2023-06-22T16:22:27;8.27;;;3.75;;
16346;SDS011;8283;48.504;13.734;2023-06-22T16:25:12;5.35;;;3.15;;
16346;SDS011;8283;48.504;13.734;2023-06-22T16:27:57;9.25;;;3.20;;
16346;SDS011;8283;48.504;13.734;2023-06-22T16:30:41;6.93;;;3.35;;
16346;SDS011;8283;48.504;13.734;2023-06-22T16:33:26;7.50;;;2.67;;
16346;SDS011;8283;48.504;13.734;2023-06-22T16:36:11;8.90;;;3.20;;
16346;SDS011;8283;48.504;13.734;2023-06-22T16:38:55;5.63;;;3.03;;
16346;SDS011;8283;48.504;13.734;2023-06-22T16:41:40;7.15;;;3.15;;
16346;SDS011;8283;48.504;13.734;2023-06-22T16:44:25;5.00;;;3.20;;
16346;SDS011;8283;48.504;13.734;2023-06-22T16:47:10;3.53;;;3.03;;